Time;durP1;ratioP1;P1;durP2;ratioP2;P2;SDS_P1;SDS_P2;PMS_P1;PMS_P2;Temp;Humidity;BMP_temperature;BMP_pressure;BME280_temperature;BME280_humidity;BME280_pressure;Samples;Min_cycle;Max_cycle;Signal;HPM_P1;HPM_P2
2023/04/20 00:01:40;;;;;;;82.40;78.20;;;6.20;99.90;;;;;;5072323;28;20486;-69
2023/04/20 00:04:06;;;;;;;79.88;76.18;;;6.30;99.90;;;;;;5088496;28;20047;-69
2023/04/20 00:06:33;;;;;;;83.90;80.13;;;6.30;99.90;;;;;;5090598;28;20042;-69
2023/04/20 00:08:59;;;;;;;73.68;70.07;;;6.40;99.90;;;;;;5091566;28;20126;-69
2023/04/20 00:11:26;;;;;;;75.57;71.88;;;6.40;99.90;;;;;;5089254;28;20130;-69
2023/04/20 00:13:52;;;;;;;72.68;69.10;;;6.40;99.90;;;;;;5089197;28;20039;-69
2023/04/20 00:16:17;;;;;;;67.43;64.07;;;6.40;99.90;;;;;;5090155;28;20036;-70
2023/04/20 00:18:45;;;;;;;62.67;59.58;;;6.40;99.90;;;;;;5101158;28;20074;-69
2023/04/20 00:21:11;;;;;;;54.85;51.92;;;6.40;99.90;;;;;;5071172;28;20031;-69
2023/04/20 00:23:37;;;;;;;59.45;56.50;;;6.40;99.90;;;;;;5088920;28;20028;-69
2023/04/20 00:26:02;;;;;;;57.53;54.80;;;6.40;99.90;;;;;;5075176;28;20035;-69
2023/04/20 00:28:28;;;;;;;54.42;51.50;;;6.40;99.90;;;;;;5091484;27;20118;-69
2023/04/20 00:30:54;;;;;;;55.88;53.03;;;6.40;99.90;;;;;;5084286;28;20108;-69
2023/04/20 00:33:19;;;;;;;60.17;57.30;;;6.30;99.90;;;;;;5089456;28;20047;-69
2023/04/20 00:35:45;;;;;;;68.18;64.72;;;6.20;99.90;;;;;;5091414;28;20031;-69
2023/04/20 00:38:11;;;;;;;72.13;68.30;;;6.20;99.90;;;;;;5072213;28;20168;-69
2023/04/20 00:40:36;;;;;;;66.00;62.70;;;6.10;99.90;;;;;;5088603;28;20061;-69
2023/04/20 00:43:12;;;;;;;70.68;67.18;;;6.10;99.90;;;;;;5090622;28;20515;-69
2023/04/20 00:45:38;;;;;;;66.15;62.92;;;6.10;99.90;;;;;;5073654;28;20411;-69
2023/04/20 00:48:04;;;;;;;79.72;76.15;;;6.10;99.90;;;;;;5088623;28;20321;-69
2023/04/20 00:50:30;;;;;;;79.97;76.22;;;6.10;99.90;;;;;;5081510;28;20042;-69
2023/04/20 00:52:56;;;;;;;82.40;78.75;;;6.10;99.90;;;;;;5088023;28;20031;-69
2023/04/20 00:55:22;;;;;;;80.35;76.63;;;6.10;99.90;;;;;;5088979;28;20150;-69
2023/04/20 00:57:48;;;;;;;85.47;81.53;;;6.20;99.90;;;;;;5090774;28;20035;-70
2023/04/20 01:00:15;;;;;;;76.68;73.13;;;6.20;99.90;;;;;;5090003;28;20080;-69
2023/04/20 01:02:40;;;;;;;68.93;65.82;;;6.30;99.90;;;;;;5089045;27;20054;-69
2023/04/20 01:05:07;;;;;;;77.38;73.82;;;6.40;99.90;;;;;;5090917;27;20372;-70
2023/04/20 01:07:32;;;;;;;63.00;59.38;;;6.50;99.90;;;;;;5088626;28;20047;-69
2023/04/20 01:09:58;;;;;;;55.38;52.60;;;6.50;99.90;;;;;;5105694;27;20036;-69
2023/04/20 01:12:24;;;;;;;57.00;54.15;;;6.60;99.90;;;;;;5103231;28;20036;-69
2023/04/20 01:14:50;;;;;;;56.40;53.67;;;6.60;99.90;;;;;;5087056;28;20118;-69
2023/04/20 01:17:16;;;;;;;51.78;49.10;;;6.60;99.90;;;;;;5083310;28;20032;-70
2023/04/20 01:19:43;;;;;;;49.03;46.47;;;6.60;99.90;;;;;;5088694;28;20039;-69
2023/04/20 01:22:15;;;;;;;48.75;46.45;;;6.70;99.90;;;;;;5122023;27;20058;-69
2023/04/20 01:24:41;;;;;;;52.78;49.97;;;6.80;99.90;;;;;;5073422;28;20043;-69
2023/04/20 01:27:06;;;;;;;41.53;39.22;;;6.90;99.90;;;;;;5088748;28;20043;-69
2023/04/20 01:29:32;;;;;;;44.58;42.33;;;6.90;99.90;;;;;;5105210;28;20073;-69
2023/04/20 01:31:58;;;;;;;52.30;49.38;;;6.90;99.90;;;;;;5085407;28;20036;-70
2023/04/20 01:34:23;;;;;;;47.22;44.47;;;6.90;99.90;;;;;;5088165;28;20127;-70
2023/04/20 01:36:49;;;;;;;45.95;43.70;;;6.90;99.90;;;;;;5089430;28;20032;-69
2023/04/20 01:39:16;;;;;;;37.33;35.38;;;7.00;99.90;;;;;;5088428;28;20464;-69
2023/04/20 01:41:42;;;;;;;36.42;34.30;;;7.00;99.90;;;;;;5090044;28;20043;-69
2023/04/20 01:44:07;;;;;;;36.75;34.67;;;7.00;99.90;;;;;;5070753;28;20392;-69
2023/04/20 01:46:37;;;;;;;35.78;33.53;;;7.00;99.90;;;;;;5089973;27;20487;-69
2023/04/20 01:49:03;;;;;;;38.97;36.80;;;6.90;99.90;;;;;;5090073;28;20057;-69
2023/04/20 01:51:28;;;;;;;36.90;35.00;;;6.90;99.90;;;;;;5071390;28;20035;-69
2023/04/20 01:53:54;;;;;;;38.70;36.55;;;6.80;99.90;;;;;;5071112;28;20490;-69
2023/04/20 01:56:20;;;;;;;38.03;35.80;;;6.70;99.90;;;;;;5087559;28;20089;-69
2023/04/20 01:58:45;;;;;;;41.17;38.83;;;6.60;99.90;;;;;;5086142;28;20703;-69
2023/04/20 02:01:11;;;;;;;45.67;43.22;;;6.50;99.90;;;;;;5072258;28;20028;-69
2023/04/20 02:03:36;;;;;;;48.67;46.20;;;6.50;99.90;;;;;;5086189;27;20035;-69
2023/04/20 02:06:02;;;;;;;57.92;55.05;;;6.40;99.90;;;;;;5071352;28;20050;-69
2023/04/20 02:08:28;;;;;;;55.88;53.15;;;6.30;99.90;;;;;;5090158;28;20088;-69
2023/04/20 02:10:53;;;;;;;62.05;59.15;;;6.20;99.90;;;;;;5104771;28;20046;-69
2023/04/20 02:13:19;;;;;;;61.30;58.35;;;6.20;99.90;;;;;;5086144;28;20043;-69
2023/04/20 02:15:45;;;;;;;62.72;59.38;;;6.10;99.90;;;;;;5088694;28;20063;-69
2023/04/20 02:18:10;;;;;;;78.53;74.88;;;6.10;99.90;;;;;;5086881;28;20047;-69
2023/04/20 02:20:36;;;;;;;79.55;76.05;;;6.10;99.90;;;;;;5088960;28;20369;-69
2023/04/20 02:23:02;;;;;;;79.00;75.40;;;6.00;99.90;;;;;;5086354;28;20048;-70
2023/04/20 02:25:27;;;;;;;90.47;86.57;;;6.00;99.90;;;;;;5089014;28;20043;-69
2023/04/20 02:27:53;;;;;;;91.90;87.70;;;6.00;99.90;;;;;;5123001;27;20097;-69
2023/04/20 02:30:19;;;;;;;92.97;88.90;;;6.00;99.90;;;;;;5086800;28;20050;-69
2023/04/20 02:32:44;;;;;;;96.72;92.38;;;6.00;99.90;;;;;;5103183;28;20474;-69
2023/04/20 02:35:10;;;;;;;106.50;101.63;;;6.00;99.90;;;;;;5086314;28;20402;-69
2023/04/20 02:37:35;;;;;;;116.18;111.13;;;6.00;99.90;;;;;;5090297;28;20551;-70
2023/04/20 02:40:01;;;;;;;115.78;110.55;;;6.10;99.90;;;;;;5070784;28;20036;-69
2023/04/20 02:42:27;;;;;;;107.22;102.68;;;6.20;99.90;;;;;;5071685;28;20486;-69
2023/04/20 02:44:52;;;;;;;101.65;97.07;;;6.20;99.90;;;;;;5086621;28;20097;-70
2023/04/20 02:47:18;;;;;;;121.20;115.95;;;6.30;99.90;;;;;;5088919;28;20160;-70
2023/04/20 02:49:44;;;;;;;117.53;112.55;;;6.40;99.90;;;;;;5088016;28;20050;-69
2023/04/20 02:52:10;;;;;;;88.50;84.78;;;6.50;99.90;;;;;;5085031;28;20039;-70
2023/04/20 02:54:35;;;;;;;107.00;102.18;;;6.60;99.90;;;;;;5070575;28;20039;-69
2023/04/20 02:57:02;;;;;;;75.43;71.93;;;6.70;99.90;;;;;;5089845;28;20495;-70
2023/04/20 02:59:27;;;;;;;87.55;83.55;;;6.80;99.90;;;;;;5103813;28;20067;-70
2023/04/20 03:01:53;;;;;;;68.22;64.97;;;6.80;99.90;;;;;;5085793;28;20089;-70
2023/04/20 03:04:19;;;;;;;58.50;55.50;;;6.80;99.90;;;;;;5087708;28;20048;-70
2023/04/20 03:06:45;;;;;;;52.55;49.45;;;6.90;99.90;;;;;;5086621;28;20044;-70
2023/04/20 03:09:10;;;;;;;44.97;42.53;;;7.00;99.90;;;;;;5084099;28;20055;-70
2023/04/20 03:11:36;;;;;;;42.67;40.40;;;7.00;99.90;;;;;;5088435;28;20031;-70
2023/04/20 03:14:02;;;;;;;44.25;41.80;;;7.10;99.90;;;;;;5086226;28;20027;-70
2023/04/20 03:16:27;;;;;;;45.83;43.22;;;7.10;99.90;;;;;;5083522;28;20085;-70
2023/04/20 03:18:53;;;;;;;40.50;38.17;;;7.20;99.90;;;;;;5073086;28;20039;-70
2023/04/20 03:21:19;;;;;;;36.53;34.53;;;7.20;99.90;;;;;;5070534;28;20071;-70
2023/04/20 03:23:45;;;;;;;39.00;36.50;;;7.30;99.90;;;;;;5087072;28;20394;-70
2023/04/20 03:26:11;;;;;;;33.83;31.55;;;7.30;99.90;;;;;;5104391;28;20039;-70
2023/04/20 03:28:37;;;;;;;35.38;33.38;;;7.30;99.90;;;;;;5089913;28;20159;-70
2023/04/20 03:31:05;;;;;;;36.75;34.78;;;7.30;99.90;;;;;;5068943;28;20043;-70
2023/04/20 03:33:31;;;;;;;33.47;31.48;;;7.40;99.90;;;;;;5070371;28;20473;-70
2023/04/20 03:35:56;;;;;;;30.67;28.60;;;7.40;99.90;;;;;;5085784;28;20495;-70
2023/04/20 03:38:22;;;;;;;30.67;28.73;;;7.50;99.90;;;;;;5069668;27;20133;-70
2023/04/20 03:40:47;;;;;;;41.13;38.92;;;7.50;99.90;;;;;;5112209;27;20071;-70
2023/04/20 03:43:13;;;;;;;27.35;25.55;;;7.50;99.90;;;;;;5089636;28;20043;-70
2023/04/20 03:45:40;;;;;;;26.63;24.92;;;7.60;99.90;;;;;;5074540;28;20047;-70
2023/04/20 03:48:06;;;;;;;27.45;25.60;;;7.60;99.90;;;;;;5088739;27;20380;-70
2023/04/20 03:50:31;;;;;;;27.17;25.38;;;7.60;99.90;;;;;;5092331;27;20050;-70
2023/04/20 03:52:57;;;;;;;27.58;25.77;;;7.60;99.90;;;;;;5092430;28;20023;-70
2023/04/20 03:55:22;;;;;;;28.27;26.48;;;7.60;99.90;;;;;;5102269;27;20504;-70
2023/04/20 03:57:48;;;;;;;32.45;30.48;;;7.60;99.90;;;;;;5070970;28;20055;-70
2023/04/20 04:00:14;;;;;;;30.65;28.85;;;7.70;99.90;;;;;;5091951;27;20124;-70
2023/04/20 04:02:39;;;;;;;47.55;45.15;;;7.80;99.90;;;;;;5085110;27;20521;-70
2023/04/20 04:05:05;;;;;;;47.15;44.60;;;7.90;99.90;;;;;;5108395;27;20043;-70
2023/04/20 04:07:31;;;;;;;54.58;51.75;;;8.00;99.90;;;;;;5091756;27;20040;-69
2023/04/20 04:09:57;;;;;;;48.22;45.83;;;8.10;99.90;;;;;;5089721;28;20043;-70
2023/04/20 04:12:22;;;;;;;51.15;48.60;;;8.20;99.90;;;;;;5102856;28;20411;-70
2023/04/20 04:14:48;;;;;;;56.05;53.38;;;8.30;99.90;;;;;;5075538;28;20071;-70
2023/04/20 04:17:14;;;;;;;62.60;59.20;;;8.40;99.90;;;;;;5087814;28;20452;-70
2023/04/20 04:19:39;;;;;;;89.95;85.63;;;8.40;99.90;;;;;;5086483;28;20926;-70
2023/04/20 04:22:05;;;;;;;40.45;38.40;;;8.50;99.90;;;;;;5088795;27;20077;-70
2023/04/20 04:24:32;;;;;;;46.92;44.50;;;8.50;99.90;;;;;;5091284;27;20083;-70
2023/04/20 04:26:58;;;;;;;47.95;45.63;;;8.50;99.90;;;;;;5067981;27;20122;-70
2023/04/20 04:29:26;;;;;;;57.03;54.25;;;8.50;99.90;;;;;;5097422;27;20129;-70
2023/04/20 04:31:53;;;;;;;47.70;45.33;;;8.50;99.90;;;;;;5087244;28;20134;-70
2023/04/20 04:34:19;;;;;;;62.55;59.45;;;8.50;99.90;;;;;;5088483;27;20139;-70
2023/04/20 04:36:45;;;;;;;57.42;54.65;;;8.50;99.90;;;;;;5076418;27;20035;-70
2023/04/20 04:39:11;;;;;;;24.55;23.20;;;8.50;99.90;;;;;;5087451;28;20650;-70
2023/04/20 04:41:37;;;;;;;38.97;36.75;;;8.50;99.90;;;;;;5090487;28;20439;-70
2023/04/20 04:44:04;;;;;;;24.73;23.23;;;8.50;99.90;;;;;;5075356;27;20476;-70
2023/04/20 04:46:31;;;;;;;34.90;32.88;;;8.40;99.90;;;;;;5090966;27;20046;-70
2023/04/20 04:48:59;;;;;;;22.80;21.30;;;8.40;99.90;;;;;;5091289;27;20035;-70
2023/04/20 04:51:25;;;;;;;26.00;24.60;;;8.40;99.90;;;;;;5071740;28;20376;-70
2023/04/20 04:53:51;;;;;;;22.30;20.90;;;8.40;99.90;;;;;;5090717;28;20367;-70
2023/04/20 04:56:19;;;;;;;27.63;26.23;;;8.40;99.90;;;;;;5088293;28;20475;-69
2023/04/20 04:58:45;;;;;;;23.70;22.10;;;8.50;99.90;;;;;;5087626;28;20032;-70
2023/04/20 05:01:12;;;;;;;31.23;29.42;;;8.50;99.90;;;;;;5085768;28;20044;-70
2023/04/20 05:03:37;;;;;;;28.52;26.58;;;8.50;99.90;;;;;;5105471;27;20055;-70
2023/04/20 05:06:03;;;;;;;37.30;35.47;;;8.40;99.90;;;;;;5088172;28;20039;-70
2023/04/20 05:08:29;;;;;;;49.60;47.08;;;8.40;99.90;;;;;;5122283;27;20045;-70
2023/04/20 05:10:56;;;;;;;59.92;57.13;;;8.40;99.90;;;;;;5090230;28;20046;-70
2023/04/20 05:13:22;;;;;;;75.00;71.70;;;8.40;99.90;;;;;;5087036;28;20123;-69
2023/04/20 05:15:47;;;;;;;62.50;59.55;;;8.30;99.90;;;;;;5088695;27;20888;-70
2023/04/20 05:18:13;;;;;;;58.85;55.95;;;8.30;99.90;;;;;;5069223;28;20048;-70
2023/04/20 05:20:38;;;;;;;52.65;50.05;;;8.20;99.90;;;;;;5091876;28;20049;-70
2023/04/20 05:23:04;;;;;;;53.58;50.92;;;8.20;99.90;;;;;;5068968;28;20067;-70
2023/04/20 05:25:31;;;;;;;53.80;51.15;;;8.20;99.90;;;;;;5089136;28;20039;-70
2023/04/20 05:27:57;;;;;;;60.28;57.47;;;8.10;99.90;;;;;;5072713;28;20048;-70
2023/04/20 05:30:22;;;;;;;60.47;57.65;;;8.20;99.90;;;;;;5085628;28;20116;-70
2023/04/20 05:32:49;;;;;;;59.83;57.17;;;8.10;99.90;;;;;;5085020;28;20057;-70
2023/04/20 05:35:14;;;;;;;62.28;59.28;;;8.20;99.90;;;;;;5090721;27;20043;-70
2023/04/20 05:37:40;;;;;;;55.45;52.75;;;8.10;99.90;;;;;;5104685;28;20039;-70
2023/04/20 05:40:06;;;;;;;61.33;58.42;;;8.10;99.90;;;;;;5084426;28;20035;-70
2023/04/20 05:42:32;;;;;;;87.28;83.38;;;8.00;99.90;;;;;;5119311;27;20043;-70
2023/04/20 05:44:58;;;;;;;55.50;52.80;;;8.00;99.90;;;;;;5106483;28;20035;-70
2023/04/20 05:47:23;;;;;;;56.65;53.90;;;7.90;99.90;;;;;;5091016;28;20410;-70
2023/04/20 05:49:50;;;;;;;55.90;53.20;;;7.90;99.90;;;;;;5086269;28;20263;-70
2023/04/20 05:52:15;;;;;;;54.47;51.60;;;7.90;99.90;;;;;;5088869;27;20565;-70
2023/04/20 05:54:41;;;;;;;51.92;49.33;;;7.90;99.90;;;;;;5085167;28;20039;-70
2023/04/20 05:57:06;;;;;;;73.05;69.88;;;7.90;99.90;;;;;;5107376;28;20043;-69
2023/04/20 05:59:32;;;;;;;59.03;55.72;;;8.00;99.90;;;;;;5067626;28;20040;-70
2023/04/20 06:01:58;;;;;;;74.55;71.15;;;8.00;99.90;;;;;;5087975;28;20039;-70
2023/04/20 06:04:23;;;;;;;56.33;53.70;;;8.00;99.90;;;;;;5087961;28;20486;-70
2023/04/20 06:06:49;;;;;;;62.17;59.28;;;8.10;99.90;;;;;;5088687;28;20043;-70
2023/04/20 06:09:15;;;;;;;59.28;56.50;;;8.10;99.90;;;;;;5088001;28;20078;-69
2023/04/20 06:11:41;;;;;;;58.30;55.53;;;8.20;99.90;;;;;;5103899;28;20063;-70
2023/04/20 06:14:06;;;;;;;59.50;56.72;;;8.20;99.90;;;;;;5088899;28;20039;-70
2023/04/20 06:16:32;;;;;;;52.00;49.10;;;8.10;99.90;;;;;;5087205;28;20095;-70
2023/04/20 06:18:57;;;;;;;48.38;45.95;;;8.10;99.90;;;;;;5074980;28;20046;-70
2023/04/20 06:21:23;;;;;;;55.10;52.40;;;8.10;99.90;;;;;;5106191;28;20040;-70
2023/04/20 06:23:49;;;;;;;60.33;57.40;;;8.10;99.90;;;;;;5085425;28;20063;-69
2023/04/20 06:26:15;;;;;;;57.97;55.45;;;8.10;99.90;;;;;;5086793;27;20032;-69
2023/04/20 06:28:41;;;;;;;54.25;51.60;;;8.10;99.90;;;;;;5108137;27;20097;-70
2023/04/20 06:31:07;;;;;;;58.40;55.55;;;8.10;99.90;;;;;;5053572;28;20055;-70
2023/04/20 06:33:33;;;;;;;49.97;47.55;;;8.00;99.90;;;;;;5086811;28;20047;-69
2023/04/20 06:35:58;;;;;;;56.85;54.10;;;7.80;99.90;;;;;;5087145;28;20447;-70
2023/04/20 06:38:24;;;;;;;59.58;56.63;;;7.80;99.90;;;;;;5087881;28;20036;-70
2023/04/20 06:40:50;;;;;;;38.15;36.17;;;7.70;99.90;;;;;;5089215;28;20169;-70
2023/04/20 06:43:16;;;;;;;33.83;31.90;;;7.40;99.90;;;;;;5084636;28;20048;-69
2023/04/20 06:45:41;;;;;;;65.60;62.58;;;7.20;99.90;;;;;;5071057;28;20042;-70
2023/04/20 06:48:07;;;;;;;39.95;37.83;;;7.10;99.90;;;;;;5087330;28;20031;-69
2023/04/20 06:50:33;;;;;;;51.30;48.65;;;6.90;99.90;;;;;;5087964;28;20122;-69
2023/04/20 06:52:58;;;;;;;57.28;54.35;;;6.90;99.90;;;;;;5085544;28;20039;-69
2023/04/20 06:55:24;;;;;;;59.17;56.35;;;6.80;99.90;;;;;;5088821;28;20164;-69
2023/04/20 06:57:50;;;;;;;51.67;48.97;;;6.70;99.90;;;;;;5069971;28;20491;-70
2023/04/20 07:00:16;;;;;;;56.65;53.90;;;6.70;99.90;;;;;;5070128;28;20085;-69
2023/04/20 07:02:50;;;;;;;108.07;103.15;;;6.60;99.90;;;;;;5087951;28;20070;-70
2023/04/20 07:05:17;;;;;;;79.68;75.95;;;6.60;99.90;;;;;;5087989;28;20116;-70
2023/04/20 07:07:43;;;;;;;89.82;85.70;;;6.60;99.90;;;;;;5088558;28;20051;-70
2023/04/20 07:10:12;;;;;;;118.47;113.43;;;6.50;99.90;;;;;;5088202;28;20035;-70
2023/04/20 07:12:38;;;;;;;116.82;111.70;;;6.50;99.90;;;;;;5088474;28;20165;-70
2023/04/20 07:15:06;;;;;;;158.02;151.13;;;6.60;99.90;;;;;;5088039;28;20120;-70
2023/04/20 07:17:32;;;;;;;122.10;116.82;;;6.60;99.90;;;;;;5062701;28;20453;-70
2023/04/20 07:20:04;;;;;;;99.05;94.85;;;6.60;99.90;;;;;;5091667;28;20066;-70
2023/04/20 07:22:30;;;;;;;108.97;104.32;;;6.60;99.90;;;;;;5074777;28;20032;-70
2023/04/20 07:24:56;;;;;;;124.28;118.97;;;6.60;99.90;;;;;;5088044;28;20084;-70
2023/04/20 07:27:22;;;;;;;122.47;117.38;;;6.60;99.90;;;;;;5092114;27;20126;-70
2023/04/20 07:29:47;;;;;;;110.95;106.30;;;6.60;99.90;;;;;;5086477;28;20063;-70
2023/04/20 07:32:13;;;;;;;94.32;89.82;;;6.60;99.90;;;;;;5091452;28;20544;-70
2023/04/20 07:34:39;;;;;;;120.15;115.05;;;6.70;99.90;;;;;;5089242;28;20074;-70
2023/04/20 07:37:04;;;;;;;98.80;94.63;;;6.70;99.90;;;;;;5068793;28;20402;-70
2023/04/20 07:39:30;;;;;;;91.30;87.35;;;6.70;99.90;;;;;;5069324;28;20032;-70
2023/04/20 07:41:56;;;;;;;91.70;87.85;;;6.80;99.90;;;;;;5091350;28;20545;-70
2023/04/20 07:44:21;;;;;;;76.72;73.15;;;6.90;99.90;;;;;;5086158;28;20039;-70
2023/04/20 07:46:48;;;;;;;49.90;47.00;;;6.90;99.90;;;;;;5074194;28;20042;-70
2023/04/20 07:49:14;;;;;;;71.28;68.03;;;6.90;99.90;;;;;;5107775;27;20052;-70
2023/04/20 07:51:40;;;;;;;51.45;48.78;;;7.00;99.90;;;;;;5090999;28;20084;-70
2023/04/20 07:54:07;;;;;;;67.32;63.97;;;7.00;99.90;;;;;;5088759;28;20036;-71
2023/04/20 07:56:32;;;;;;;66.03;62.92;;;7.10;99.90;;;;;;5073130;28;20038;-70
2023/04/20 07:58:58;;;;;;;52.38;49.67;;;7.10;99.90;;;;;;5121145;27;20039;-70
2023/04/20 08:01:24;;;;;;;70.15;67.05;;;7.00;99.90;;;;;;5064495;28;20605;-70
2023/04/20 08:03:50;;;;;;;48.08;45.45;;;7.00;99.90;;;;;;5083553;28;20118;-70
2023/04/20 08:06:16;;;;;;;65.13;61.90;;;7.00;99.90;;;;;;5075176;27;20036;-71
2023/04/20 08:08:42;;;;;;;57.33;54.42;;;6.90;99.90;;;;;;5090705;28;20512;-70
2023/04/20 08:11:07;;;;;;;56.63;53.92;;;6.90;99.90;;;;;;5089857;28;20036;-70
2023/04/20 08:13:35;;;;;;;63.08;60.13;;;6.90;99.90;;;;;;5100658;28;20114;-71
2023/04/20 08:16:01;;;;;;;61.05;58.28;;;6.90;99.90;;;;;;5103338;28;20131;-71
2023/04/20 08:18:26;;;;;;;64.07;61.25;;;7.00;99.90;;;;;;5083444;28;20553;-70
2023/04/20 08:20:52;;;;;;;41.70;39.15;;;7.10;99.90;;;;;;5089351;28;20040;-70
2023/04/20 08:23:17;;;;;;;45.42;43.05;;;7.10;99.90;;;;;;5075051;28;20545;-71
2023/04/20 08:25:43;;;;;;;46.50;44.10;;;7.10;99.90;;;;;;5089586;28;20039;-70
2023/04/20 08:28:08;;;;;;;40.33;38.22;;;7.10;99.90;;;;;;5082764;28;20638;-70
2023/04/20 08:30:34;;;;;;;45.72;43.47;;;7.20;99.90;;;;;;5073997;28;20048;-71
2023/04/20 08:33:00;;;;;;;38.55;36.08;;;7.20;99.90;;;;;;5086380;28;20452;-71
2023/04/20 08:35:26;;;;;;;40.40;38.25;;;7.30;99.90;;;;;;5083304;28;20476;-71
2023/04/20 08:37:51;;;;;;;45.95;43.63;;;7.30;99.90;;;;;;5085013;28;20042;-71
2023/04/20 08:40:20;;;;;;;34.22;32.20;;;7.30;99.90;;;;;;5070123;28;20036;-70
2023/04/20 08:42:45;;;;;;;37.03;35.03;;;7.30;99.90;;;;;;5082120;28;20089;-70
2023/04/20 08:45:12;;;;;;;34.45;32.53;;;7.20;99.90;;;;;;5085267;28;20040;-70
2023/04/20 08:47:37;;;;;;;37.45;35.40;;;7.30;99.90;;;;;;5083851;28;20058;-70
2023/04/20 08:50:03;;;;;;;35.55;33.45;;;7.20;99.90;;;;;;5085300;28;20040;-70
2023/04/20 08:52:30;;;;;;;39.80;37.80;;;7.30;99.90;;;;;;5084694;28;20039;-71
2023/04/20 08:54:55;;;;;;;45.85;43.53;;;7.30;99.90;;;;;;5069538;28;20143;-70
2023/04/20 08:57:21;;;;;;;31.95;29.98;;;7.30;99.90;;;;;;5081594;28;20530;-70
2023/04/20 08:59:47;;;;;;;33.72;31.63;;;7.40;99.90;;;;;;5081503;28;20039;-71
2023/04/20 09:02:13;;;;;;;31.23;29.42;;;7.30;99.90;;;;;;5077136;28;20048;-71
2023/04/20 09:04:39;;;;;;;33.97;32.22;;;7.40;99.90;;;;;;5067119;28;20047;-70
2023/04/20 09:07:06;;;;;;;34.42;32.05;;;7.50;99.90;;;;;;5070216;28;20502;-70
2023/04/20 09:09:32;;;;;;;29.40;27.58;;;7.50;99.90;;;;;;5085674;28;20043;-71
2023/04/20 09:12:06;;;;;;;29.95;27.98;;;7.60;99.90;;;;;;5068371;28;20461;-70
2023/04/20 09:14:45;;;;;;;29.58;27.85;;;7.70;99.90;;;;;;5082473;28;20036;-71
2023/04/20 09:17:16;;;;;;;28.42;26.55;;;7.80;99.90;;;;;;5084105;28;20036;-70
2023/04/20 09:19:52;;;;;;;27.88;25.98;;;7.90;99.90;;;;;;5078107;28;20051;-70
2023/04/20 09:22:32;;;;;;;36.88;34.40;;;8.00;99.90;;;;;;5101259;28;20035;-70
2023/04/20 09:24:58;;;;;;;34.95;32.95;;;8.10;99.90;;;;;;5064781;28;20564;-71
2023/04/20 09:27:25;;;;;;;33.45;31.65;;;8.10;99.90;;;;;;5085967;28;20039;-70
2023/04/20 09:29:57;;;;;;;29.60;27.70;;;8.10;99.90;;;;;;5068289;28;20083;-71
2023/04/20 09:32:24;;;;;;;31.20;29.17;;;8.10;99.90;;;;;;5087087;28;20044;-71
2023/04/20 09:34:50;;;;;;;32.28;30.33;;;8.20;99.90;;;;;;5075535;28;20061;-71
2023/04/20 09:37:16;;;;;;;28.02;26.10;;;8.20;99.90;;;;;;5085822;28;20497;-71
2023/04/20 09:39:45;;;;;;;29.52;27.70;;;8.30;99.90;;;;;;5067317;28;20036;-71
2023/04/20 09:42:12;;;;;;;33.47;31.75;;;8.50;99.90;;;;;;5086043;28;20089;-71
2023/04/20 09:44:39;;;;;;;32.03;30.23;;;8.50;99.90;;;;;;5083644;28;20039;-70
2023/04/20 09:47:06;;;;;;;37.42;35.33;;;8.50;99.90;;;;;;5076250;28;20044;-70
2023/04/20 09:49:32;;;;;;;30.02;28.10;;;8.30;99.90;;;;;;5084847;28;20127;-70
2023/04/20 09:52:01;;;;;;;35.83;33.97;;;8.30;99.90;;;;;;5104507;27;20118;-70
2023/04/20 09:54:28;;;;;;;41.33;39.25;;;8.30;99.90;;;;;;5084337;28;20422;-70
2023/04/20 09:56:54;;;;;;;33.28;31.38;;;8.50;99.90;;;;;;5083836;28;20059;-70
2023/04/20 09:59:20;;;;;;;32.72;30.65;;;8.60;99.90;;;;;;5068044;28;20051;-70
2023/04/20 10:01:47;;;;;;;30.45;28.75;;;8.70;99.90;;;;;;5081152;28;20580;-70
2023/04/20 10:04:13;;;;;;;32.00;30.02;;;8.80;99.90;;;;;;5073541;28;20044;-70
2023/04/20 10:06:50;;;;;;;36.13;34.15;;;8.80;99.90;;;;;;5080410;28;20086;-70
2023/04/20 10:09:27;;;;;;;38.40;36.17;;;8.90;99.90;;;;;;5080872;28;20114;-70
2023/04/20 10:12:03;;;;;;;41.92;39.78;;;9.00;99.90;;;;;;5079500;28;20032;-70
2023/04/20 10:14:30;;;;;;;45.22;42.88;;;9.10;99.90;;;;;;5084388;28;20044;-70
2023/04/20 10:16:59;;;;;;;44.15;41.65;;;9.10;99.90;;;;;;5083329;28;20040;-69
2023/04/20 10:19:44;;;;;;;35.75;33.65;;;9.00;99.90;;;;;;5080070;28;20097;-69
2023/04/20 10:22:12;;;;;;;38.85;36.60;;;9.00;99.90;;;;;;5078770;28;20374;-68
2023/04/20 10:24:38;;;;;;;34.35;32.35;;;8.90;99.90;;;;;;5064404;28;20084;-69
2023/04/20 10:27:15;;;;;;;38.42;36.08;;;8.90;99.90;;;;;;5063140;28;20109;-69
2023/04/20 10:29:41;;;;;;;43.03;40.78;;;8.90;99.90;;;;;;5058559;28;20189;-68
2023/04/20 10:32:07;;;;;;;36.40;34.33;;;8.90;99.90;;;;;;5077483;28;20048;-69
2023/04/20 10:34:34;;;;;;;34.22;32.22;;;8.80;99.90;;;;;;5071242;28;20036;-69
2023/04/20 10:37:13;;;;;;;34.90;32.83;;;8.70;99.90;;;;;;5079092;28;20032;-69
2023/04/20 10:39:45;;;;;;;31.05;29.00;;;8.60;99.90;;;;;;5063712;28;20555;-69
2023/04/20 10:42:11;;;;;;;177.65;168.93;;;8.50;99.90;;;;;;5079062;28;20044;-68
2023/04/20 10:44:53;;;;;;;44.33;41.92;;;8.50;99.90;;;;;;5063523;28;20046;-68
2023/04/20 10:47:28;;;;;;;33.53;31.40;;;8.50;99.90;;;;;;5062382;28;20415;-68
2023/04/20 10:49:53;;;;;;;;;;;8.50;99.90;;;;;;5083581;28;20059;-71
2023/04/20 10:52:34;;;;;;;28.25;26.50;;;8.50;99.90;;;;;;5073563;28;19924;-69
2023/04/20 10:55:00;;;;;;;30.73;28.63;;;8.60;99.90;;;;;;5055989;28;20047;-70
2023/04/20 10:57:26;;;;;;;32.80;30.90;;;8.60;99.90;;;;;;5070752;28;20841;-70
2023/04/20 10:59:51;;;;;;;40.88;38.63;;;8.50;99.90;;;;;;5094141;28;20130;-69
2023/04/20 11:02:17;;;;;;;30.65;28.75;;;8.60;99.90;;;;;;5067502;28;20097;-69
2023/04/20 11:04:43;;;;;;;30.15;28.05;;;8.60;99.90;;;;;;5085672;28;20526;-70
2023/04/20 11:07:12;;;;;;;38.85;36.55;;;8.60;99.90;;;;;;5070001;28;20046;-70
2023/04/20 11:09:39;;;;;;;100.47;95.80;;;8.60;99.90;;;;;;5081772;28;20040;-69
2023/04/20 11:12:11;;;;;;;32.50;30.40;;;8.70;99.90;;;;;;5077939;28;20482;-70
2023/04/20 11:14:54;;;;;;;43.28;41.10;;;8.70;99.90;;;;;;5058265;28;20477;-69
2023/04/20 11:17:31;;;;;;;31.42;29.63;;;8.80;99.90;;;;;;5075445;28;20040;-70
2023/04/20 11:20:10;;;;;;;33.90;31.92;;;8.80;99.90;;;;;;5084078;28;20443;-70
2023/04/20 11:22:38;;;;;;;32.13;30.13;;;8.90;99.90;;;;;;5083483;28;20127;-70
2023/04/20 11:25:05;;;;;;;34.88;32.85;;;8.90;99.90;;;;;;5085425;28;20147;-70
2023/04/20 11:27:31;;;;;;;36.20;33.90;;;8.80;99.90;;;;;;5085435;28;20040;-69
2023/04/20 11:29:58;;;;;;;46.13;43.53;;;8.90;99.90;;;;;;5089681;28;20080;-69
2023/04/20 11:32:25;;;;;;;37.25;34.83;;;8.90;99.90;;;;;;5119873;27;20039;-69
2023/04/20 11:34:58;;;;;;;32.60;30.60;;;9.00;99.90;;;;;;5088846;28;20042;-70
2023/04/20 11:37:24;;;;;;;29.42;27.63;;;9.00;99.90;;;;;;5085468;28;20032;-70
2023/04/20 11:40:19;;;;;;;29.40;27.42;;;9.00;99.90;;;;;;5090966;28;20039;-70
2023/04/20 11:42:45;;;;;;;;;;;9.00;99.90;;;;;;5034375;28;20107;-69
2023/04/20 11:45:10;;;;;;;28.00;26.05;;;9.00;99.90;;;;;;5020874;28;19924;-70
2023/04/20 11:47:37;;;;;;;32.30;30.30;;;8.90;99.90;;;;;;5022510;28;20048;-70
2023/04/20 11:50:04;;;;;;;31.35;29.10;;;9.00;99.90;;;;;;5008586;28;20424;-70
2023/04/20 11:52:30;;;;;;;31.30;29.27;;;8.80;99.90;;;;;;5023145;28;20562;-69
2023/04/20 11:54:55;;;;;;;30.38;28.52;;;8.80;99.90;;;;;;5039785;28;20044;-70
2023/04/20 11:57:22;;;;;;;38.05;35.95;;;8.80;99.90;;;;;;5050362;28;20397;-69
2023/04/20 11:59:48;;;;;;;36.00;33.92;;;8.90;99.90;;;;;;5022935;28;20143;-69
2023/04/20 12:02:14;;;;;;;30.52;28.20;;;8.80;99.90;;;;;;5049824;28;20052;-70
2023/04/20 12:04:40;;;;;;;31.48;29.48;;;8.90;99.90;;;;;;5020002;28;20048;-70
2023/04/20 12:07:06;;;;;;;29.50;27.52;;;9.10;99.90;;;;;;5040286;28;20453;-70
2023/04/20 12:09:36;;;;;;;30.20;28.30;;;9.20;99.90;;;;;;5023222;28;20056;-70
2023/04/20 12:12:05;;;;;;;60.92;57.90;;;9.30;99.90;;;;;;5060030;28;20053;-70
2023/04/20 12:14:35;;;;;;;36.40;34.20;;;9.30;99.90;;;;;;5053762;28;20060;-69
2023/04/20 12:17:03;;;;;;;46.10;43.70;;;9.40;99.90;;;;;;5017810;28;20187;-69
2023/04/20 12:19:29;;;;;;;31.77;29.50;;;9.40;99.90;;;;;;5064188;28;20585;-69
2023/04/20 12:21:55;;;;;;;44.05;41.47;;;9.50;99.90;;;;;;5071748;28;20036;-69
2023/04/20 12:24:21;;;;;;;41.83;39.55;;;9.70;99.90;;;;;;5088318;28;20031;-68
2023/04/20 12:26:46;;;;;;;46.42;43.85;;;9.80;99.90;;;;;;5090990;28;20390;-68
2023/04/20 12:29:12;;;;;;;56.63;53.00;;;9.90;99.90;;;;;;5085137;28;20060;-69
2023/04/20 12:31:38;;;;;;;47.45;44.88;;;9.90;99.90;;;;;;5089705;28;20126;-68
2023/04/20 12:34:04;;;;;;;42.78;40.20;;;10.00;99.90;;;;;;5087687;28;20039;-69